createdAt,value
2023-01-17T00:00:08.104Z,0.87
2023-01-17T00:02:35.872Z,0.90
2023-01-17T00:05:21.549Z,0.84
2023-01-17T00:08:06.873Z,0.81
2023-01-17T00:10:35.218Z,0.77
2023-01-17T00:13:04.975Z,0.55
2023-01-17T00:15:33.184Z,0.78
2023-01-17T00:18:01.094Z,0.88
2023-01-17T00:20:48.344Z,0.96
2023-01-17T00:23:36.193Z,1.10
2023-01-17T00:26:05.216Z,1.07
2023-01-17T00:28:35.945Z,1.15
2023-01-17T00:31:03.961Z,1.17
2023-01-17T00:33:31.055Z,1.12
2023-01-17T00:35:59.256Z,1.15
2023-01-17T00:38:27.688Z,1.05
2023-01-17T00:40:54.543Z,1.06
2023-01-17T00:43:41.787Z,1.04
2023-01-17T00:46:28.253Z,1.06
2023-01-17T00:49:14.163Z,1.03
2023-01-17T00:51:59.246Z,0.99
2023-01-17T00:54:44.696Z,1.02
2023-01-17T00:57:29.948Z,1.01
2023-01-17T01:00:15.673Z,1.15
2023-01-17T01:03:02.292Z,1.02
2023-01-17T01:05:47.786Z,1.17
2023-01-17T01:08:39.433Z,1.19
2023-01-17T01:11:26.640Z,1.17
2023-01-17T01:14:12.121Z,1.25
2023-01-17T01:16:57.637Z,1.30
2023-01-17T01:19:44.504Z,1.34
2023-01-17T01:22:30.061Z,1.35
2023-01-17T01:25:15.188Z,1.34
2023-01-17T01:28:00.546Z,1.35
2023-01-17T01:30:45.695Z,1.37
2023-01-17T01:33:20.593Z,1.32
2023-01-17T01:35:54.691Z,1.38
2023-01-17T01:38:24.392Z,1.40
2023-01-17T01:40:53.936Z,1.42
2023-01-17T01:43:23.324Z,1.46
2023-01-17T01:45:55.154Z,1.46
2023-01-17T01:48:37.416Z,1.40
2023-01-17T01:51:09.943Z,1.51
2023-01-17T01:53:41.804Z,1.43
2023-01-17T01:56:13.527Z,1.56
2023-01-17T01:58:43.009Z,1.53
2023-01-17T02:01:11.365Z,1.59
2023-01-17T02:03:42.035Z,1.61
2023-01-17T02:06:20.319Z,1.66
2023-01-17T02:08:49.457Z,1.63
2023-01-17T02:11:17.160Z,1.70
2023-01-17T02:13:44.887Z,1.65
2023-01-17T02:16:23.579Z,1.69
2023-01-17T02:19:00.239Z,1.76
2023-01-17T02:21:33.503Z,1.78
2023-01-17T02:24:41.245Z,1.74
2023-01-17T02:27:17.476Z,1.83
2023-01-17T02:30:14.589Z,1.87
2023-01-17T02:32:52.381Z,1.89
2023-01-17T02:35:29.098Z,1.89
2023-01-17T02:38:04.123Z,1.90
2023-01-17T02:40:39.414Z,1.80
2023-01-17T02:43:10.670Z,1.91
2023-01-17T02:45:39.010Z,1.93
2023-01-17T02:48:11.679Z,1.90
2023-01-17T02:50:52.472Z,1.75
2023-01-17T02:53:33.069Z,1.92
2023-01-17T02:56:07.132Z,1.84
2023-01-17T02:58:47.681Z,1.90
2023-01-17T03:01:27.818Z,1.91
2023-01-17T03:04:02.909Z,1.96
2023-01-17T03:06:35.974Z,1.81
2023-01-17T03:09:05.393Z,1.69
2023-01-17T03:11:34.257Z,1.76
2023-01-17T03:14:02.005Z,1.69
2023-01-17T03:16:34.016Z,1.73
2023-01-17T03:19:03.724Z,1.73
2023-01-17T03:21:31.829Z,1.73
2023-01-17T03:23:59.663Z,1.71
2023-01-17T03:26:27.440Z,1.65
2023-01-17T03:28:55.372Z,1.76
2023-01-17T03:31:23.269Z,1.76
2023-01-17T03:33:51.107Z,1.71
2023-01-17T03:36:20.499Z,1.83
2023-01-17T03:38:48.397Z,1.81
2023-01-17T03:41:16.142Z,1.90
2023-01-17T03:43:44.019Z,1.88
2023-01-17T03:46:20.561Z,1.85
2023-01-17T03:48:48.632Z,1.79
2023-01-17T03:51:16.863Z,1.88
2023-01-17T03:53:47.093Z,1.90
2023-01-17T03:56:15.715Z,1.94
2023-01-17T03:58:43.853Z,1.95
2023-01-17T04:01:12.323Z,1.99
2023-01-17T04:03:40.415Z,1.84
2023-01-17T04:06:08.572Z,2.05
2023-01-17T04:08:36.605Z,1.99
2023-01-17T04:11:06.022Z,2.03
2023-01-17T04:13:34.254Z,1.99
2023-01-17T04:16:02.142Z,2.05
2023-01-17T04:18:30.390Z,1.96
2023-01-17T04:20:58.249Z,2.11
2023-01-17T04:23:26.113Z,1.98
2023-01-17T04:25:53.818Z,2.08
2023-01-17T04:28:23.012Z,2.03
2023-01-17T04:30:50.853Z,2.07
2023-01-17T04:33:18.707Z,2.01
2023-01-17T04:35:46.547Z,2.05
2023-01-17T04:38:14.325Z,2.04
2023-01-17T04:40:42.063Z,2.01
2023-01-17T04:43:09.882Z,2.01
2023-01-17T04:45:39.455Z,1.99
2023-01-17T04:48:07.942Z,1.97
2023-01-17T04:50:35.914Z,2.02
2023-01-17T04:53:03.801Z,1.99
2023-01-17T04:55:31.555Z,1.99
2023-01-17T04:57:59.381Z,2.00
2023-01-17T05:00:27.292Z,1.94
2023-01-17T05:02:56.515Z,2.00
2023-01-17T05:05:24.414Z,1.87
2023-01-17T05:07:55.912Z,1.93
2023-01-17T05:10:24.080Z,1.99
2023-01-17T05:12:56.056Z,1.98
2023-01-17T05:15:24.813Z,1.96
2023-01-17T05:17:53.641Z,1.98
2023-01-17T05:20:24.897Z,1.97
2023-01-17T05:22:55.608Z,1.97
2023-01-17T05:25:24.140Z,1.91
2023-01-17T05:27:51.933Z,1.94
2023-01-17T05:30:21.087Z,1.87
2023-01-17T05:32:50.442Z,1.96
2023-01-17T05:35:19.728Z,1.94
2023-01-17T05:37:50.121Z,1.89
2023-01-17T05:40:18.048Z,1.98
2023-01-17T05:42:47.274Z,2.02
2023-01-17T05:45:17.134Z,2.03
2023-01-17T05:47:45.386Z,2.03
2023-01-17T05:50:14.029Z,2.00
2023-01-17T05:52:42.782Z,1.91
2023-01-17T05:55:12.227Z,1.97
2023-01-17T05:57:39.947Z,1.92
2023-01-17T06:00:09.839Z,1.80
2023-01-17T06:02:37.712Z,1.89
2023-01-17T06:05:06.256Z,1.81
2023-01-17T06:07:34.391Z,1.90
2023-01-17T06:10:02.312Z,1.91
2023-01-17T06:12:32.269Z,1.86
2023-01-17T06:15:00.196Z,1.90
2023-01-17T06:17:28.112Z,1.87
2023-01-17T06:19:55.831Z,1.83
2023-01-17T06:22:23.680Z,1.91
2023-01-17T06:24:51.558Z,1.77
2023-01-17T06:27:19.411Z,1.83
2023-01-17T06:29:48.687Z,1.84
2023-01-17T06:32:16.651Z,1.83
2023-01-17T06:34:44.461Z,1.89
2023-01-17T06:37:12.316Z,1.88
2023-01-17T06:39:40.205Z,1.74
2023-01-17T06:42:07.923Z,1.89
2023-01-17T06:44:35.769Z,1.89
2023-01-17T06:47:05.026Z,1.85
2023-01-17T06:49:32.762Z,1.91
2023-01-17T06:52:00.574Z,1.87
2023-01-17T06:54:28.354Z,1.85
2023-01-17T06:56:56.092Z,1.90
2023-01-17T06:59:23.994Z,1.78
2023-01-17T07:01:52.443Z,1.87
2023-01-17T07:04:21.595Z,1.92
2023-01-17T07:06:49.437Z,1.93
2023-01-17T07:09:17.465Z,1.74
2023-01-17T07:11:45.648Z,1.89
2023-01-17T07:14:14.837Z,1.79
2023-01-17T07:16:45.336Z,1.86
2023-01-17T07:19:13.376Z,1.90
2023-01-17T07:21:42.542Z,1.87
2023-01-17T07:24:10.734Z,1.84
2023-01-17T07:26:40.208Z,1.83
2023-01-17T07:29:08.320Z,1.81
2023-01-17T07:31:38.168Z,1.80
2023-01-17T07:34:05.888Z,1.89
2023-01-17T07:36:34.050Z,1.90
2023-01-17T07:39:06.150Z,1.99
2023-01-17T07:41:34.722Z,1.94
2023-01-17T07:44:02.618Z,1.93
2023-01-17T07:46:30.353Z,1.97
2023-01-17T07:48:58.063Z,1.90
2023-01-17T07:51:25.947Z,1.98
2023-01-17T07:53:53.682Z,1.89
2023-01-17T07:56:22.805Z,1.85
2023-01-17T07:58:50.743Z,1.79
2023-01-17T08:01:18.610Z,1.71
2023-01-17T08:03:46.580Z,1.84
2023-01-17T08:06:18.825Z,1.76
2023-01-17T08:08:46.983Z,1.75
2023-01-17T08:11:15.200Z,1.74
2023-01-17T08:13:44.432Z,1.69
2023-01-17T08:16:12.699Z,1.63
2023-01-17T08:18:41.060Z,1.64
2023-01-17T08:21:14.797Z,1.70
2023-01-17T08:23:42.630Z,1.62
2023-01-17T08:26:10.377Z,1.63
2023-01-17T08:28:38.232Z,1.52
2023-01-17T08:31:11.382Z,1.51
2023-01-17T08:33:39.235Z,1.61
2023-01-17T08:36:07.335Z,1.54
2023-01-17T08:38:35.224Z,1.55
2023-01-17T08:41:03.043Z,1.53
2023-01-17T08:43:30.790Z,1.43
2023-01-17T08:45:58.656Z,1.51
2023-01-17T08:48:27.854Z,1.56
2023-01-17T08:50:55.685Z,1.58
2023-01-17T08:53:23.533Z,1.57
2023-01-17T08:55:58.935Z,1.62
2023-01-17T08:58:29.779Z,1.56
2023-01-17T09:01:01.805Z,1.55
2023-01-17T09:03:31.215Z,1.57
2023-01-17T09:06:03.753Z,1.49
2023-01-17T09:08:31.628Z,1.59
2023-01-17T09:10:59.549Z,1.54
2023-01-17T09:13:27.439Z,1.58
2023-01-17T09:15:57.541Z,1.53
2023-01-17T09:18:25.707Z,1.53
2023-01-17T09:20:55.649Z,1.56
2023-01-17T09:23:24.033Z,1.44
2023-01-17T09:25:55.218Z,1.51
2023-01-17T09:28:23.149Z,1.57
2023-01-17T09:30:51.059Z,1.54
2023-01-17T09:33:19.369Z,1.56
2023-01-17T09:35:47.673Z,1.58
2023-01-17T09:38:17.854Z,1.63
2023-01-17T09:40:48.622Z,1.57
2023-01-17T09:43:24.283Z,1.56
2023-01-17T09:45:52.893Z,1.51
2023-01-17T09:48:29.478Z,1.45
2023-01-17T09:51:01.071Z,1.64
2023-01-17T09:53:35.821Z,1.59
2023-01-17T09:56:11.972Z,1.54
2023-01-17T09:58:47.470Z,1.65
2023-01-17T10:01:26.598Z,1.66
2023-01-17T10:04:11.823Z,1.67
2023-01-17T10:06:59.569Z,1.63
2023-01-17T10:09:46.890Z,1.65
2023-01-17T10:12:26.031Z,1.69
2023-01-17T10:15:07.204Z,1.72
2023-01-17T10:17:44.896Z,1.68
2023-01-17T10:20:34.028Z,1.78
2023-01-17T10:23:22.140Z,1.74
2023-01-17T10:25:52.529Z,1.73
2023-01-17T10:28:21.513Z,1.77
2023-01-17T10:30:50.767Z,1.78
2023-01-17T10:33:22.503Z,1.74
2023-01-17T10:35:57.919Z,1.72
2023-01-17T10:38:32.039Z,1.75
2023-01-17T10:41:09.322Z,1.59
2023-01-17T10:43:45.524Z,1.69
2023-01-17T10:46:18.144Z,1.74
2023-01-17T10:48:49.588Z,1.71
2023-01-17T10:51:35.665Z,1.68
2023-01-17T10:54:16.200Z,1.66
2023-01-17T10:56:45.219Z,1.67
2023-01-17T10:59:29.694Z,1.62
2023-01-17T11:01:57.885Z,1.57
2023-01-17T11:04:36.581Z,1.55
2023-01-17T11:07:16.288Z,1.39
2023-01-17T11:09:46.986Z,1.27
2023-01-17T11:12:40.203Z,1.33
2023-01-17T11:15:25.820Z,1.25
2023-01-17T11:18:03.494Z,1.31
2023-01-17T11:20:35.058Z,1.11
2023-01-17T11:23:08.254Z,1.27
2023-01-17T11:25:39.020Z,1.24
2023-01-17T11:28:20.780Z,1.24
2023-01-17T11:30:54.615Z,1.25
2023-01-17T11:33:56.508Z,1.18
2023-01-17T11:36:27.351Z,1.14
2023-01-17T11:38:57.747Z,1.00
2023-01-17T11:41:25.521Z,1.04
2023-01-17T11:43:56.416Z,0.93
2023-01-17T11:46:25.141Z,0.77
2023-01-17T11:48:56.196Z,0.64
2023-01-17T11:51:28.223Z,0.64
2023-01-17T11:54:09.215Z,0.50
2023-01-17T11:56:38.461Z,0.42
2023-01-17T11:59:26.281Z,0.24
2023-01-17T12:02:21.526Z,0.35
2023-01-17T12:05:00.119Z,0.27
2023-01-17T12:07:36.750Z,0.29
2023-01-17T12:10:14.814Z,0.02
2023-01-17T12:13:12.518Z,0.00
2023-01-17T12:15:56.756Z,0.13
2023-01-17T12:18:35.845Z,0.07
2023-01-17T12:21:16.808Z,0.07
2023-01-17T12:24:01.817Z,-0.10
2023-01-17T12:26:38.345Z,-0.10
2023-01-17T12:29:44.819Z,0.01
2023-01-17T12:32:30.140Z,-0.24
2023-01-17T12:35:01.981Z,-0.18
2023-01-17T12:37:37.144Z,-0.27
2023-01-17T12:40:15.800Z,-0.14
2023-01-17T12:42:48.869Z,-0.18
2023-01-17T12:45:22.711Z,-0.20
2023-01-17T12:47:59.022Z,-0.22
2023-01-17T12:50:33.406Z,-0.27
2023-01-17T12:53:06.352Z,-0.07
2023-01-17T12:55:41.569Z,-0.18
2023-01-17T12:58:17.377Z,-0.13
2023-01-17T13:00:48.313Z,-0.35
2023-01-17T13:03:27.308Z,-0.13
2023-01-17T13:05:58.625Z,-0.16
2023-01-17T13:08:31.017Z,-0.12
2023-01-17T13:11:05.037Z,-0.16
2023-01-17T13:13:35.675Z,-0.11
2023-01-17T13:16:08.565Z,-0.14
2023-01-17T13:18:44.040Z,-0.06
2023-01-17T13:21:30.655Z,-0.16
2023-01-17T13:24:20.422Z,-0.14
2023-01-17T13:27:32.084Z,-0.20
2023-01-17T13:30:24.225Z,-0.17
2023-01-17T13:33:07.260Z,-0.10
2023-01-17T13:35:43.724Z,-0.23
2023-01-17T13:38:31.744Z,-0.15
2023-01-17T13:41:03.853Z,-0.11
2023-01-17T13:43:36.721Z,-0.03
2023-01-17T13:46:05.466Z,-0.01
2023-01-17T13:48:34.646Z,-0.10
2023-01-17T13:51:06.202Z,-0.21
2023-01-17T13:53:59.058Z,-0.17
2023-01-17T13:56:37.111Z,-0.08
2023-01-17T13:59:35.911Z,-0.01
2023-01-17T14:02:03.769Z,-0.01
2023-01-17T14:05:10.242Z,0.00
2023-01-17T14:07:45.977Z,0.01
2023-01-17T14:10:27.782Z,-0.01
2023-01-17T14:12:57.488Z,-0.11
2023-01-17T14:15:27.812Z,-0.05
2023-01-17T14:17:58.709Z,-0.09
2023-01-17T14:20:46.806Z,-0.07
2023-01-17T14:23:40.476Z,-0.19
2023-01-17T14:26:24.548Z,-0.05
2023-01-17T14:28:53.317Z,-0.13
2023-01-17T14:31:24.088Z,-0.08
2023-01-17T14:33:51.917Z,-0.01
2023-01-17T14:36:26.917Z,-0.05
2023-01-17T14:38:56.279Z,-0.08
2023-01-17T14:41:27.268Z,-0.22
2023-01-17T14:43:56.525Z,-0.06
2023-01-17T14:46:28.064Z,-0.06
2023-01-17T14:49:02.434Z,0.01
2023-01-17T14:51:35.000Z,0.04
2023-01-17T14:54:16.925Z,0.07
2023-01-17T14:56:44.771Z,0.11
2023-01-17T14:59:17.781Z,0.04
2023-01-17T15:02:06.351Z,0.04
2023-01-17T15:04:39.644Z,0.14
2023-01-17T15:07:08.689Z,0.17
2023-01-17T15:09:39.069Z,0.19
2023-01-17T15:12:09.702Z,0.24
2023-01-17T15:14:39.068Z,0.18
2023-01-17T15:17:11.213Z,0.12
2023-01-17T15:19:43.552Z,0.16
2023-01-17T15:22:12.395Z,0.16
2023-01-17T15:24:44.693Z,0.30
2023-01-17T15:27:15.061Z,0.31
2023-01-17T15:29:43.079Z,0.33
2023-01-17T15:32:19.537Z,0.30
2023-01-17T15:34:50.006Z,0.31
2023-01-17T15:37:25.197Z,0.35
2023-01-17T15:40:04.630Z,0.26
2023-01-17T15:42:35.415Z,0.32
2023-01-17T15:45:05.747Z,0.28
2023-01-17T15:47:35.943Z,0.31
2023-01-17T15:50:30.205Z,0.42
2023-01-17T15:53:00.599Z,0.44
2023-01-17T15:55:34.428Z,0.46
2023-01-17T15:58:03.390Z,0.49
2023-01-17T16:00:38.372Z,0.55
2023-01-17T16:03:23.127Z,0.47
2023-01-17T16:05:51.737Z,0.52
2023-01-17T16:08:39.725Z,0.60
2023-01-17T16:11:12.500Z,0.45
2023-01-17T16:13:43.418Z,0.48
2023-01-17T16:16:13.364Z,0.65
2023-01-17T16:18:41.630Z,0.51
2023-01-17T16:21:19.737Z,0.65
2023-01-17T16:23:48.014Z,0.67
2023-01-17T16:26:17.831Z,0.65
2023-01-17T16:28:45.937Z,0.70
2023-01-17T16:31:13.678Z,0.61
2023-01-17T16:33:42.828Z,0.66
2023-01-17T16:36:16.534Z,0.73
2023-01-17T16:38:44.821Z,0.71
2023-01-17T16:41:12.708Z,0.72
2023-01-17T16:43:41.919Z,0.76
2023-01-17T16:46:12.621Z,0.79
2023-01-17T16:48:40.409Z,0.72
2023-01-17T16:51:09.227Z,0.80
2023-01-17T16:53:37.730Z,0.82
2023-01-17T16:56:13.769Z,0.89
2023-01-17T16:58:43.678Z,0.77
2023-01-17T17:01:12.330Z,0.83
2023-01-17T17:03:40.209Z,0.82
2023-01-17T17:06:08.757Z,0.89
2023-01-17T17:08:37.836Z,0.85
2023-01-17T17:11:14.532Z,0.85
2023-01-17T17:13:44.988Z,0.82
2023-01-17T17:16:15.934Z,0.91
2023-01-17T17:18:44.995Z,0.86
2023-01-17T17:21:13.860Z,0.84
2023-01-17T17:23:41.816Z,0.85
2023-01-17T17:26:09.802Z,0.83
2023-01-17T17:28:37.588Z,0.95
2023-01-17T17:31:10.642Z,0.97
2023-01-17T17:33:38.758Z,0.83
2023-01-17T17:36:10.108Z,0.98
2023-01-17T17:38:38.625Z,1.01
2023-01-17T17:41:09.407Z,1.02
2023-01-17T17:43:38.892Z,1.02
2023-01-17T17:46:09.013Z,1.05
2023-01-17T17:48:37.349Z,1.10
2023-01-17T17:51:06.373Z,1.09
2023-01-17T17:53:34.203Z,1.09
2023-01-17T17:56:06.460Z,1.15
2023-01-17T17:58:36.123Z,1.14
2023-01-17T18:01:05.642Z,1.04
2023-01-17T18:03:34.959Z,1.20
2023-01-17T18:06:05.236Z,1.17
2023-01-17T18:08:33.835Z,1.20
2023-01-17T18:11:03.045Z,1.20
2023-01-17T18:13:31.728Z,1.19
2023-01-17T18:16:05.644Z,1.32
2023-01-17T18:18:35.359Z,1.35
2023-01-17T18:21:08.759Z,1.39
2023-01-17T18:23:39.538Z,1.41
2023-01-17T18:26:08.185Z,1.45
2023-01-17T18:28:35.917Z,1.41
2023-01-17T18:31:07.799Z,1.48
2023-01-17T18:33:38.749Z,1.49
2023-01-17T18:36:08.254Z,1.56
2023-01-17T18:38:39.602Z,1.59
2023-01-17T18:41:08.847Z,1.64
2023-01-17T18:43:36.959Z,1.63
2023-01-17T18:46:05.602Z,1.65
2023-01-17T18:48:33.875Z,1.66
2023-01-17T18:51:05.748Z,1.63
2023-01-17T18:53:35.664Z,1.62
2023-01-17T18:56:06.089Z,1.78
2023-01-17T18:58:35.970Z,1.76
2023-01-17T19:01:09.660Z,1.77
2023-01-17T19:03:38.160Z,1.82
2023-01-17T19:06:08.621Z,1.87
2023-01-17T19:08:36.439Z,1.87
2023-01-17T19:11:05.415Z,1.74
2023-01-17T19:13:34.478Z,1.91
2023-01-17T19:16:04.233Z,1.93
2023-01-17T19:18:32.508Z,1.98
2023-01-17T19:21:05.707Z,1.93
2023-01-17T19:23:35.667Z,1.88
2023-01-17T19:26:03.799Z,1.98
2023-01-17T19:28:33.626Z,1.98
2023-01-17T19:31:03.629Z,1.86
2023-01-17T19:33:31.491Z,2.07
2023-01-17T19:36:01.136Z,2.04
2023-01-17T19:38:28.982Z,2.13
2023-01-17T19:40:58.240Z,2.08
2023-01-17T19:43:26.080Z,2.16
2023-01-17T19:45:58.980Z,1.92
2023-01-17T19:48:27.827Z,2.13
2023-01-17T19:50:55.765Z,2.21
2023-01-17T19:53:24.435Z,2.21
2023-01-17T19:55:52.380Z,2.18
2023-01-17T19:58:21.433Z,2.22
2023-01-17T20:00:49.260Z,2.26
2023-01-17T20:03:17.102Z,2.25
2023-01-17T20:05:46.101Z,2.26
2023-01-17T20:08:14.240Z,2.28
2023-01-17T20:10:42.238Z,2.30
2023-01-17T20:13:09.986Z,2.28
2023-01-17T20:15:39.118Z,2.34
2023-01-17T20:18:07.115Z,2.35
2023-01-17T20:20:39.590Z,2.36
2023-01-17T20:23:14.057Z,2.39
2023-01-17T20:25:41.959Z,2.36
2023-01-17T20:28:09.777Z,2.27
2023-01-17T20:30:39.037Z,2.36
2023-01-17T20:33:09.110Z,2.35
2023-01-17T20:35:36.885Z,2.41
2023-01-17T20:38:04.843Z,2.38
2023-01-17T20:40:32.713Z,2.45
2023-01-17T20:43:00.432Z,2.41
2023-01-17T20:45:28.861Z,2.38
2023-01-17T20:47:58.497Z,2.42
2023-01-17T20:50:26.634Z,2.41
2023-01-17T20:52:54.520Z,2.41
2023-01-17T20:55:24.336Z,2.40
2023-01-17T20:57:52.954Z,2.39
2023-01-17T21:00:21.597Z,2.38
2023-01-17T21:02:50.054Z,2.40
2023-01-17T21:05:19.185Z,2.41
2023-01-17T21:07:47.102Z,2.40
2023-01-17T21:10:15.047Z,2.38
2023-01-17T21:12:42.951Z,2.35
2023-01-17T21:15:20.142Z,2.38
2023-01-17T21:17:47.929Z,2.34
2023-01-17T21:20:16.516Z,2.34
2023-01-17T21:22:45.732Z,2.28
2023-01-17T21:25:13.615Z,2.33
2023-01-17T21:27:41.337Z,2.40
2023-01-17T21:30:10.714Z,2.34
2023-01-17T21:32:38.538Z,2.37
2023-01-17T21:35:07.736Z,2.37
2023-01-17T21:37:36.027Z,2.41
2023-01-17T21:40:05.899Z,2.33
2023-01-17T21:42:33.696Z,2.42
2023-01-17T21:45:01.557Z,2.42
2023-01-17T21:47:30.075Z,2.33
2023-01-17T21:49:58.550Z,2.46
2023-01-17T21:52:26.366Z,2.51
2023-01-17T21:55:12.013Z,2.52
2023-01-17T21:57:59.234Z,2.55
2023-01-17T22:00:27.365Z,2.52
2023-01-17T22:02:56.476Z,2.56
2023-01-17T22:05:25.986Z,2.54
2023-01-17T22:08:12.372Z,2.64
2023-01-17T22:10:45.517Z,2.53
2023-01-17T22:13:16.443Z,2.58
2023-01-17T22:15:44.701Z,2.64
2023-01-17T22:18:14.542Z,2.53
2023-01-17T22:20:43.018Z,2.55
2023-01-17T22:23:11.514Z,2.65
2023-01-17T22:25:39.452Z,2.67
2023-01-17T22:28:07.370Z,2.74
2023-01-17T22:30:37.289Z,2.68
2023-01-17T22:33:05.377Z,2.69
2023-01-17T22:35:33.726Z,2.74
2023-01-17T22:38:01.575Z,2.77
2023-01-17T22:40:30.396Z,2.72
2023-01-17T22:42:59.005Z,2.61
2023-01-17T22:45:27.563Z,2.75
2023-01-17T22:47:56.811Z,2.75
2023-01-17T22:50:24.679Z,2.71
2023-01-17T22:52:52.477Z,2.72
2023-01-17T22:55:21.653Z,2.72
2023-01-17T22:57:49.506Z,2.76
2023-01-17T23:00:17.803Z,2.74
2023-01-17T23:02:45.737Z,2.69
2023-01-17T23:05:14.844Z,2.80
2023-01-17T23:07:46.605Z,2.81
2023-01-17T23:10:35.967Z,2.79
2023-01-17T23:13:04.098Z,2.82
2023-01-17T23:15:49.551Z,2.80
2023-01-17T23:18:35.236Z,2.85
2023-01-17T23:21:07.773Z,2.80
2023-01-17T23:23:35.490Z,2.85
2023-01-17T23:26:03.372Z,2.87
2023-01-17T23:28:30.261Z,2.90
2023-01-17T23:31:03.646Z,2.81
2023-01-17T23:33:31.677Z,2.84
2023-01-17T23:35:59.405Z,2.83
2023-01-17T23:38:29.953Z,2.86
2023-01-17T23:41:20.086Z,2.87
2023-01-17T23:43:51.887Z,2.85
2023-01-17T23:46:19.764Z,2.80
2023-01-17T23:48:47.776Z,2.83
2023-01-17T23:51:15.515Z,2.83
2023-01-17T23:53:44.711Z,2.83
2023-01-17T23:56:16.237Z,2.87
2023-01-17T23:58:44.204Z,2.77
